Time;durP1;ratioP1;P1;durP2;ratioP2;P2;SDS_P1;SDS_P2;PMS_P1;PMS_P2;Temp;Humidity;BMP_temperature;BMP_pressure;BME280_temperature;BME280_humidity;BME280_pressure;Samples;Min_cycle;Max_cycle;Signal;HPM_P1;HPM_P2
2022/02/11 00:08:57;;;;;;;;;;;7.40;99.90;;;6.35;85.04;95966.91;10511868;28;1818;-82
2022/02/11 00:14:00;;;;;;;;;;;7.50;99.90;;;6.30;86.57;95961.50;10520392;28;1957;-82
2022/02/11 00:19:03;;;;;;;;;;;7.50;99.90;;;6.26;87.88;95955.00;10530128;28;1729;-82
2022/02/11 00:24:06;;;;;;;;;;;7.40;99.90;;;6.26;90.33;95959.53;10526455;28;1595;-83
2022/02/11 00:34:51;;;;;;;;;;;7.30;99.90;;;5.95;98.93;95951.81;10513082;28;1906;-83
2022/02/11 00:40:21;;;;;;;;;;;7.20;99.90;;;5.84;100.00;95952.63;10516593;28;1871;-84
2022/02/11 00:45:45;;;;;;;;;;;7.20;99.90;;;5.70;100.00;95951.31;10513147;28;1762;-83
2022/02/11 01:06:58;;;;;;;;;;;6.80;99.90;;;5.40;100.00;95925.69;10510528;28;2006;-81
2022/02/11 01:12:04;;;;;;;;;;;7.20;99.90;;;5.31;100.00;95927.13;10513786;28;1947;-82
2022/02/11 01:17:13;;;;;;;;;;;6.60;99.90;;;5.28;100.00;95932.94;10513857;28;2036;-82
2022/02/11 01:22:27;;;;;;;;;;;6.20;99.90;;;5.32;100.00;95918.06;10516129;28;2136;-81
2022/02/11 01:27:37;;;;;;;;;;;6.20;99.90;;;5.40;100.00;95917.69;10509483;28;1870;-82
2022/02/11 01:32:54;;;;;;;;;;;6.40;99.90;;;5.46;100.00;95912.44;10509912;28;1950;-84
2022/02/11 01:38:08;;;;;;;;;;;6.40;99.90;;;5.53;100.00;95897.94;10514414;28;1949;-82
2022/02/11 01:54:07;;;;;;;;;;;6.70;99.90;;;5.67;100.00;95883.28;10492019;22;3567;-72
2022/02/11 02:26:29;;;;;;;;;;;6.50;99.90;;;5.51;100.00;95856.56;10364172;28;1986;-72
2022/02/11 02:32:22;;;;;;;;;;;6.50;99.90;;;5.49;100.00;95858.66;10409162;28;1922;-72
2022/02/11 02:37:35;;;;;;;;;;;6.50;99.90;;;5.46;100.00;95864.47;10394941;28;1974;-72
2022/02/11 02:58:47;;;;;;;;;;;6.20;99.90;;;5.28;100.00;95844.97;10386024;28;1944;-72
2022/02/11 03:52:32;;;;;;;;;;;6.00;99.90;;;4.98;100.00;95873.69;10409493;22;1993;-78
2022/02/11 04:56:31;;;;;;;;;;;5.80;99.90;;;4.56;100.00;95890.66;10416813;28;2040;-79
2022/02/11 05:01:34;;;;;;;;;;;5.80;99.90;;;4.50;100.00;95888.09;10406818;28;1932;-79
2022/02/11 05:06:37;;;;;;;;;;;5.70;99.90;;;4.50;100.00;95896.09;10412659;28;2026;-80
2022/02/11 05:11:39;;;;;;;;;;;5.70;99.90;;;4.45;100.00;95898.63;10422255;28;2026;-79
2022/02/11 05:16:42;;;;;;;;;;;5.60;99.90;;;4.42;100.00;95907.09;10422092;28;2000;-79
2022/02/11 05:21:46;;;;;;;;;;;5.60;99.90;;;4.48;100.00;95917.63;10413093;28;1973;-80
2022/02/11 05:26:49;;;;;;;;;;;5.60;99.90;;;4.46;100.00;95924.22;10424514;28;2030;-79
2022/02/11 05:31:52;;;;;;;;;;;5.60;99.90;;;4.41;100.00;95932.09;10421309;28;1986;-80
2022/02/11 05:36:55;;;;;;;;;;;5.60;99.90;;;4.39;100.00;95937.66;10409892;28;1961;-79
2022/02/11 05:41:58;;;;;;;;;;;5.50;99.90;;;4.34;100.00;95932.19;10408807;28;2205;-80
2022/02/11 05:47:01;;;;;;;;;;;5.40;99.90;;;4.31;100.00;95961.91;10417895;28;1953;-77
2022/02/11 05:52:03;;;;;;;;;;;5.40;99.90;;;3.48;100.00;95983.97;10425111;28;1910;-78
2022/02/11 05:57:07;;;;;;;;;;;4.80;99.90;;;3.38;100.00;96003.13;10421088;28;2018;-80
2022/02/11 06:02:10;;;;;;;;;;;4.40;99.90;;;3.21;100.00;96007.41;10422715;28;1753;-77
2022/02/11 06:07:14;;;;;;;;;;;4.10;99.90;;;3.06;100.00;96010.41;10421690;28;2119;-79
2022/02/11 06:12:17;;;;;;;;;;;4.00;99.90;;;3.04;100.00;96025.75;10419953;28;2091;-78
2022/02/11 06:17:23;;;;;;;;;;;3.90;99.90;;;3.11;100.00;96036.31;10424776;28;1920;-78
2022/02/11 06:22:26;;;;;;;;;;;3.90;99.90;;;3.12;100.00;96046.72;10428888;28;1907;-79
2022/02/11 06:27:29;;;;;;;;;;;3.90;99.90;;;3.10;100.00;96062.06;10417242;28;2002;-78
2022/02/11 06:32:31;;;;;;;;;;;3.90;99.90;;;3.14;100.00;96073.88;10419284;28;2028;-80
2022/02/11 06:37:34;;;;;;;;;;;3.90;99.90;;;3.15;100.00;96088.78;10425757;28;2496;-79
2022/02/11 06:42:37;;;;;;;;;;;4.00;99.90;;;3.10;100.00;96098.44;10413805;28;2096;-78
2022/02/11 06:47:40;;;;;;;;;;;4.00;99.90;;;3.04;100.00;96113.38;10422115;28;1978;-78
2022/02/11 06:52:43;;;;;;;;;;;4.10;99.90;;;3.04;100.00;96128.50;10424313;28;2072;-78
2022/02/11 06:57:47;;;;;;;;;;;3.80;99.90;;;2.94;100.00;96150.25;10422804;28;2009;-80
2022/02/11 07:02:50;;;;;;;;;;;3.80;99.90;;;2.81;100.00;96164.44;10428126;28;1910;-79
2022/02/11 07:07:53;;;;;;;;;;;3.70;99.90;;;2.68;100.00;96188.44;10437735;28;1985;-78
2022/02/11 07:12:55;;;;;;;;;;;3.70;99.90;;;2.61;100.00;96199.09;10440913;28;1927;-77
2022/02/11 07:17:58;;;;;;;;;;;3.60;99.90;;;2.65;100.00;96210.88;10437490;28;1541;-78
2022/02/11 07:23:01;;;;;;;;;;;3.60;99.90;;;2.69;100.00;96232.53;10429397;28;1989;-78
2022/02/11 07:28:04;;;;;;;;;;;3.70;99.90;;;2.59;100.00;96245.44;10437120;28;1906;-80
2022/02/11 07:33:07;;;;;;;;;;;3.70;99.90;;;2.68;100.00;96266.22;10429778;28;1947;-77
2022/02/11 07:38:10;;;;;;;;;;;3.70;99.90;;;2.61;100.00;96270.75;10431276;28;1881;-78
2022/02/11 07:43:13;;;;;;;;;;;3.70;99.90;;;2.59;100.00;96295.84;10421808;28;1957;-78
2022/02/11 07:48:36;;;;;;;;;;;3.70;99.90;;;2.58;100.00;96318.94;10413606;28;1954;-79
2022/02/11 07:53:39;;;;;;;;;;;3.70;99.90;;;2.39;100.00;96331.25;10433242;22;2024;-73
2022/02/11 07:58:42;;;;;;;;;;;3.40;99.90;;;2.42;100.00;96335.31;10430300;28;1889;-76
2022/02/11 08:03:45;;;;;;;;;;;3.30;99.90;;;2.19;100.00;96358.84;10408043;28;2011;-74
2022/02/11 08:08:50;;;;;;;;;;;3.40;99.90;;;2.13;100.00;96377.19;10396071;28;2223;-73
2022/02/11 08:13:53;;;;;;;;;;;3.10;99.90;;;1.94;100.00;96393.94;10411599;28;1939;-74
2022/02/11 08:18:57;;;;;;;;;;;3.00;99.90;;;1.66;100.00;96428.59;10417910;28;1966;-73
2022/02/11 08:24:00;;;;;;;;;;;2.80;99.90;;;1.80;100.00;96434.72;10409961;28;2115;-75
2022/02/11 08:29:04;;;;;;;;;;;2.60;99.90;;;1.83;100.00;96456.31;10415296;28;1989;-75
2022/02/11 08:34:07;;;;;;;;;;;2.60;99.90;;;2.03;100.00;96471.44;10410783;28;2112;-75
2022/02/11 08:39:10;;;;;;;;;;;2.80;99.90;;;1.67;100.00;96499.13;10422045;28;1935;-73
2022/02/11 08:44:13;;;;;;;;;;;2.70;99.90;;;1.61;100.00;96506.03;10412340;28;1969;-74
2022/02/11 08:49:16;;;;;;;;;;;2.50;99.90;;;1.79;100.00;96528.53;10405055;28;2048;-75
2022/02/11 08:54:19;;;;;;;;;;;2.60;99.90;;;2.03;100.00;96519.16;10407232;28;2055;-73
2022/02/11 08:59:22;;;;;;;;;;;2.80;99.90;;;2.25;100.00;96538.41;10406663;28;1880;-73
2022/02/11 09:04:25;;;;;;;;;;;3.10;99.90;;;2.78;100.00;96535.75;10404050;28;1982;-74
2022/02/11 09:09:28;;;;;;;;;;;3.30;99.90;;;2.99;100.00;96556.78;10423949;28;1968;-74
2022/02/11 09:14:31;;;;;;;;;;;3.60;99.90;;;2.75;100.00;96565.38;10404556;28;1931;-75
2022/02/11 09:19:34;;;;;;;;;;;3.50;99.90;;;3.32;100.00;96567.34;10402329;28;1927;-73
2022/02/11 09:24:40;;;;;;;;;;;3.90;99.90;;;3.36;100.00;96573.84;10402651;28;2067;-75
2022/02/11 09:29:43;;;;;;;;;;;4.00;99.90;;;3.23;100.00;96595.94;10405738;28;1998;-75
2022/02/11 09:34:46;;;;;;;;;;;4.20;99.90;;;3.12;100.00;96599.25;10404608;28;2557;-75
2022/02/11 09:39:49;;;;;;;;;;;4.00;99.90;;;3.21;100.00;96603.31;10408900;28;2425;-75
2022/02/11 09:44:53;;;;;;;;;;;4.00;99.90;;;3.46;100.00;96623.94;10405168;28;2327;-76
2022/02/11 09:49:56;;;;;;;;;;;4.10;99.90;;;3.58;100.00;96624.09;10405959;28;2001;-76
2022/02/11 10:00:15;;;;;;;;;;;4.30;99.90;;;3.61;92.69;96635.13;10433707;22;3708;-69
2022/02/11 10:05:18;;;;;;;;;;;4.40;99.90;;;3.29;93.02;96649.28;10449034;28;1963;-69
2022/02/11 10:15:38;;;;;;;;;;;4.20;99.90;;;3.63;93.80;96672.97;10443978;28;2075;-69
2022/02/11 10:20:42;;;;;;;;;;;4.30;99.90;;;3.84;91.32;96679.06;10446692;28;1923;-70
2022/02/11 10:25:45;;;;;;;;;;;4.60;99.90;;;3.51;86.89;96690.59;10435793;28;2024;-69
2022/02/11 10:30:48;;;;;;;;;;;4.50;99.90;;;3.12;84.95;96699.41;10442133;28;1897;-68
2022/02/11 10:35:51;;;;;;;;;;;4.10;99.90;;;2.93;87.67;96708.97;10436053;28;1796;-68
2022/02/11 10:40:54;;;;;;;;;;;4.20;99.90;;;3.16;85.86;96711.22;10429067;28;1752;-71
2022/02/11 10:46:01;;;;;;;;;;;3.90;99.90;;;2.96;80.75;96697.94;10426652;28;1910;-71
2022/02/11 10:51:07;;;;;;;;;;;3.90;99.90;;;2.67;81.14;96720.34;10425548;28;1853;-72
2022/02/11 10:56:10;;;;;;;;;;;3.50;99.90;;;3.12;85.29;96716.16;10429508;28;1911;-71
2022/02/11 11:01:14;;;;;;;;;;;3.70;99.90;;;3.15;81.72;96715.72;10435042;28;1846;-71
2022/02/11 11:06:18;;;;;;;;;;;3.80;99.90;;;3.85;80.60;96720.59;10440153;28;1994;-71
2022/02/11 11:11:24;;;;;;;;;;;4.30;99.90;;;3.48;78.04;96718.38;10444030;28;1849;-71
2022/02/11 11:16:27;;;;;;;;;;;4.50;99.90;;;3.12;80.82;96716.16;10431378;28;1679;-71
2022/02/11 11:21:30;;;;;;;;;;;4.20;99.90;;;2.86;80.33;96703.66;10425831;28;1902;-70
2022/02/11 11:26:33;;;;;;;;;;;4.10;99.90;;;2.91;80.64;96713.66;10445685;28;1913;-71
2022/02/11 11:31:37;;;;;;;;;;;3.90;99.90;;;2.68;80.03;96698.09;10442996;28;2014;-71
2022/02/11 11:36:40;;;;;;;;;;;4.00;99.90;;;2.75;79.12;96709.56;10440010;28;1843;-71
2022/02/11 11:41:44;;;;;;;;;;;3.80;99.90;;;3.04;78.31;96705.69;10431507;28;1890;-71
2022/02/11 11:46:47;;;;;;;;;;;4.00;99.90;;;3.12;77.12;96713.50;10441078;28;1886;-70
2022/02/11 11:51:51;;;;;;;;;;;4.10;99.90;;;3.46;77.99;96703.66;10437356;28;1747;-71
2022/02/11 11:56:54;;;;;;;;;;;4.30;99.90;;;3.88;74.89;96699.72;10436668;28;1834;-71
2022/02/11 12:01:58;;;;;;;;;;;4.60;99.90;;;3.91;71.74;96688.66;10429130;28;1842;-71
2022/02/11 12:07:01;;;;;;;;;;;4.90;99.90;;;3.96;70.24;96698.66;10429867;28;2277;-71
2022/02/11 12:12:05;;;;;;;;;;;4.80;99.90;;;4.08;68.02;96697.00;10436719;28;1769;-71
2022/02/11 12:17:08;;;;;;;;;;;5.10;99.90;;;4.21;69.45;96704.13;10470944;28;1813;-69
2022/02/11 12:22:11;;;;;;;;;;;5.00;99.90;;;3.99;67.76;96696.41;10479647;28;1821;-72
2022/02/11 12:27:24;;;;;;;;;;;5.10;99.90;;;4.20;67.74;96713.09;10474302;28;1960;-70
2022/02/11 12:32:27;;;;;;;;;;;5.10;99.90;;;4.67;67.79;96709.22;10456142;28;1868;-70
2022/02/11 12:37:30;;;;;;;;;;;5.30;99.90;;;4.32;66.69;96720.22;10468371;28;1582;-68
2022/02/11 12:42:34;;;;;;;;;;;5.40;99.90;;;4.25;64.39;96721.28;10462902;28;1809;-69
2022/02/11 12:47:37;;;;;;;;;;;5.30;99.90;;;4.27;65.78;96720.06;10447102;28;1907;-68
2022/02/11 12:52:40;;;;;;;;;;;5.10;99.90;;;4.43;65.67;96723.25;10450963;28;1854;-68
2022/02/11 12:57:43;;;;;;;;;;;5.20;99.90;;;4.42;65.37;96711.81;10448430;28;1835;-67
2022/02/11 13:02:47;;;;;;;;;;;5.20;99.90;;;4.53;65.61;96711.13;10438362;28;1864;-67
2022/02/11 13:07:51;;;;;;;;;;;5.30;99.90;;;4.71;63.87;96710.44;10433944;28;1906;-67
2022/02/11 13:12:54;;;;;;;;;;;5.40;99.90;;;4.90;62.05;96700.69;10434263;28;1866;-68
2022/02/11 13:17:56;;;;;;;;;;;5.60;99.90;;;4.69;62.00;96723.13;10435496;28;1817;-67
2022/02/11 13:22:59;;;;;;;;;;;5.70;99.90;;;4.49;60.81;96727.75;10437002;28;1821;-68
2022/02/11 13:28:03;;;;;;;;;;;5.60;99.90;;;4.39;62.44;96732.69;10440403;28;2318;-67
2022/02/11 13:33:06;;;;;;;;;;;5.90;99.90;;;4.12;63.52;96738.09;10435903;28;1806;-68
2022/02/11 13:38:09;;;;;;;;;;;5.00;99.90;;;4.16;64.44;96723.38;10441877;28;1884;-68
2022/02/11 13:43:12;;;;;;;;;;;5.30;99.90;;;4.03;64.53;96742.03;10437828;28;1682;-68
2022/02/11 13:48:16;;;;;;;;;;;5.20;99.90;;;3.89;64.92;96753.72;10431834;28;1938;-68
2022/02/11 13:53:20;;;;;;;;;;;5.00;99.90;;;3.92;62.73;96758.63;10431143;28;1927;-68
2022/02/11 13:58:23;;;;;;;;;;;4.90;99.90;;;3.86;62.36;96748.81;10425912;28;1918;-67
2022/02/11 14:03:26;;;;;;;;;;;4.90;99.90;;;3.80;63.15;96756.59;10437034;28;1839;-66
2022/02/11 14:08:29;;;;;;;;;;;4.80;99.90;;;3.91;63.67;96770.28;10430856;28;1910;-66
2022/02/11 14:13:32;;;;;;;;;;;4.80;99.90;;;4.03;63.27;96768.63;10429569;28;1805;-66
2022/02/11 14:18:35;;;;;;;;;;;4.90;99.90;;;4.08;63.08;96768.84;10424111;28;1729;-68
2022/02/11 14:23:39;;;;;;;;;;;5.00;99.90;;;4.00;62.56;96777.03;10439808;28;2144;-66
2022/02/11 14:28:42;;;;;;;;;;;5.00;99.90;;;4.05;62.49;96782.53;10436536;28;1946;-67
2022/02/11 14:33:45;;;;;;;;;;;5.00;99.90;;;4.05;61.52;96794.00;10428859;28;1861;-66
2022/02/11 14:38:47;;;;;;;;;;;5.00;99.90;;;4.15;61.76;96796.25;10430217;28;1785;-66
2022/02/11 14:43:51;;;;;;;;;;;5.00;99.90;;;4.13;63.01;96800.94;10435852;28;1871;-65
2022/02/11 14:48:55;;;;;;;;;;;5.00;99.90;;;4.09;62.96;96807.72;10427273;28;1914;-66
2022/02/11 14:53:59;;;;;;;;;;;5.10;99.90;;;3.92;64.47;96806.50;10429864;28;1880;-67
2022/02/11 14:59:03;;;;;;;;;;;4.90;99.90;;;3.77;65.42;96814.72;10428584;28;1871;-67
2022/02/11 15:04:05;;;;;;;;;;;4.80;99.90;;;3.84;66.74;96812.03;10425689;28;1908;-66
2022/02/11 15:09:08;;;;;;;;;;;4.80;99.90;;;3.66;66.04;96810.81;10426128;28;1975;-66
2022/02/11 15:14:11;;;;;;;;;;;4.70;99.90;;;3.40;68.59;96824.09;10427051;28;1807;-65
2022/02/11 15:19:14;;;;;;;;;;;4.60;99.90;;;3.17;68.44;96824.44;10431635;28;1854;-64
2022/02/11 15:24:18;;;;;;;;;;;4.30;99.90;;;3.02;69.23;96829.94;10427096;28;1832;-66
2022/02/11 15:29:21;;;;;;;;;;;4.20;99.90;;;2.99;69.15;96833.00;10425023;28;2658;-66
2022/02/11 15:34:24;;;;;;;;;;;4.10;99.90;;;3.01;68.78;96833.63;10427400;28;1889;-67
2022/02/11 15:39:27;;;;;;;;;;;4.10;99.90;;;3.01;67.47;96830.16;10432666;28;1835;-65
2022/02/11 15:44:30;;;;;;;;;;;4.10;99.90;;;2.90;67.80;96834.19;10440193;28;1874;-66
2022/02/11 15:49:33;;;;;;;;;;;4.00;99.90;;;2.89;67.44;96846.66;10442649;28;1918;-68
2022/02/11 15:54:37;;;;;;;;;;;4.00;99.90;;;2.84;67.03;96842.94;10432627;28;1866;-68
2022/02/11 15:59:42;;;;;;;;;;;3.90;99.90;;;2.65;67.37;96842.66;10429019;28;1855;-66
2022/02/11 16:04:45;;;;;;;;;;;3.90;99.90;;;2.60;67.79;96858.34;10431867;22;2335;-67
2022/02/11 16:09:50;;;;;;;;;;;3.80;99.90;;;2.48;69.04;96865.22;10392143;28;1988;-69
2022/02/11 16:14:53;;;;;;;;;;;3.70;99.90;;;2.34;69.05;96872.31;10399454;28;1857;-69
2022/02/11 16:19:56;;;;;;;;;;;3.60;99.90;;;2.45;69.32;96868.28;10424281;28;1868;-68
2022/02/11 16:25:01;;;;;;;;;;;3.60;99.90;;;2.40;69.88;96870.72;10415246;28;1364;-67
2022/02/11 16:30:04;;;;;;;;;;;3.50;99.90;;;2.37;69.58;96874.59;10415881;28;1996;-66
2022/02/11 16:35:08;;;;;;;;;;;3.50;99.90;;;2.28;71.03;96882.88;10420521;28;1545;-69
2022/02/11 16:40:11;;;;;;;;;;;3.50;99.90;;;2.07;72.46;96881.91;10418622;28;1470;-68
2022/02/11 16:45:14;;;;;;;;;;;3.30;99.90;;;1.85;73.99;96880.34;10418093;28;1462;-69
2022/02/11 16:50:17;;;;;;;;;;;3.20;99.90;;;1.81;74.48;96893.13;10407748;28;1922;-70
2022/02/11 16:55:21;;;;;;;;;;;3.10;99.90;;;1.84;74.48;96907.84;10438035;28;2116;-70
2022/02/11 17:00:24;;;;;;;;;;;3.10;99.90;;;1.69;74.42;96909.75;10428139;28;1449;-70
2022/02/11 17:05:29;;;;;;;;;;;3.00;99.90;;;1.67;75.14;96923.19;10429286;28;1372;-69
2022/02/11 17:10:33;;;;;;;;;;;3.00;99.90;;;1.92;73.48;96923.63;10435221;28;1414;-69
2022/02/11 17:15:36;;;;;;;;;;;2.90;99.90;;;1.77;73.94;96926.34;10427405;28;1474;-69
2022/02/11 17:20:40;;;;;;;;;;;3.00;99.90;;;1.63;75.02;96938.66;10420739;28;1392;-69
2022/02/11 17:25:44;;;;;;;;;;;2.90;99.90;;;1.67;75.18;96939.09;10422434;28;1986;-69
2022/02/11 17:30:47;;;;;;;;;;;2.90;99.90;;;1.77;75.01;96938.78;10420309;28;1921;-68
2022/02/11 17:35:50;;;;;;;;;;;2.90;99.90;;;1.96;75.03;96943.44;10423716;28;1453;-68
2022/02/11 17:40:53;;;;;;;;;;;2.90;99.90;;;2.00;75.61;96957.16;10423246;28;1402;-68
2022/02/11 17:45:56;;;;;;;;;;;3.30;99.90;;;2.16;74.49;96957.72;10428048;28;1930;-70
2022/02/11 17:50:59;;;;;;;;;;;3.10;99.90;;;2.23;74.42;96959.56;10441109;28;1446;-69
2022/02/11 17:56:02;;;;;;;;;;;3.40;99.90;;;2.17;75.80;96962.00;10419933;28;2061;-69
2022/02/11 18:01:06;;;;;;;;;;;3.20;99.90;;;2.29;74.88;96964.94;10410935;28;1535;-69
2022/02/11 18:06:09;;;;;;;;;;;3.30;99.90;;;2.22;75.40;96973.84;10402417;28;1914;-69
2022/02/11 18:11:12;;;;;;;;;;;3.30;99.90;;;2.15;75.22;96985.22;10411056;28;1495;-68
2022/02/11 18:16:14;;;;;;;;;;;3.30;99.90;;;2.20;75.29;97005.06;10433941;28;1939;-68
2022/02/11 18:21:17;;;;;;;;;;;3.20;99.90;;;2.13;75.97;97008.47;10418252;28;1438;-69
2022/02/11 18:26:20;;;;;;;;;;;3.20;99.90;;;2.14;74.71;97020.72;10420643;28;1906;-70
2022/02/11 18:31:23;;;;;;;;;;;3.30;99.90;;;2.07;75.46;97034.94;10428207;28;2009;-67
2022/02/11 18:36:26;;;;;;;;;;;3.10;99.90;;;1.84;76.80;97038.56;10408223;28;1921;-68
2022/02/11 18:41:29;;;;;;;;;;;3.00;99.90;;;1.71;78.12;97045.56;10413362;28;2195;-69
2022/02/11 18:46:33;;;;;;;;;;;2.80;99.90;;;1.80;78.78;97039.16;10416999;28;1987;-68
2022/02/11 18:51:37;;;;;;;;;;;2.80;99.90;;;1.72;80.38;97042.75;10413082;28;1973;-68
2022/02/11 18:56:48;;;;;;;;;;;2.80;99.90;;;1.71;80.84;97043.72;10417066;28;1868;-68
2022/02/11 19:01:50;;;;;;;;;;;2.80;99.90;;;1.67;82.22;97066.34;10416637;28;1829;-69
2022/02/11 19:06:53;;;;;;;;;;;2.80;99.90;;;1.54;82.38;97058.22;10416786;28;1910;-70
2022/02/11 19:11:56;;;;;;;;;;;2.70;99.90;;;1.22;84.97;97072.69;10415495;28;1809;-68
2022/02/11 19:16:59;;;;;;;;;;;2.60;99.90;;;1.07;86.45;97078.78;10415805;28;1845;-71
2022/02/11 19:22:02;;;;;;;;;;;2.40;99.90;;;0.90;88.06;97090.56;10418004;28;1575;-67
2022/02/11 19:27:06;;;;;;;;;;;2.30;99.90;;;0.86;89.20;97083.16;10436456;28;1914;-67
2022/02/11 19:32:10;;;;;;;;;;;2.20;99.90;;;0.76;91.10;97104.56;10419962;28;1585;-68
2022/02/11 19:37:14;;;;;;;;;;;2.00;99.90;;;0.71;92.58;97105.13;10414651;28;2006;-70
2022/02/11 19:42:17;;;;;;;;;;;2.00;99.90;;;0.64;93.42;97114.78;10418131;28;1825;-68
2022/02/11 19:47:21;;;;;;;;;;;1.90;99.90;;;0.56;94.48;97111.38;10410059;28;1914;-68
2022/02/11 19:52:25;;;;;;;;;;;;;;;0.39;95.28;97108.03;10416224;28;1866;-69
2022/02/11 19:57:28;;;;;;;;;;;;;;;0.42;95.50;97129.66;10413008;28;1759;-68
2022/02/11 20:02:40;;;;;;;;;;;;;;;0.35;95.34;97130.56;10412593;28;1809;-68
2022/02/11 20:07:43;;;;;;;;;;;;;;;0.31;95.65;97127.41;10414214;28;1989;-67
2022/02/11 20:12:47;;;;;;;;;;;;;;;0.22;97.45;97120.56;10420226;28;1860;-69
2022/02/11 20:17:52;;;;;;;;;;;;;;;0.34;97.16;97124.44;10411155;28;1848;-69
2022/02/11 20:22:55;;;;;;;;;;;;;;;0.30;96.18;97125.78;10406054;28;2070;-69
2022/02/11 20:27:58;;;;;;;;;;;;;;;0.39;95.91;97130.03;10412723;28;1914;-66
2022/02/11 20:33:04;;;;;;;;;;;;;;;0.28;96.55;97132.25;10421854;28;1827;-69
2022/02/11 20:38:08;;;;;;;;;;;;;;;0.21;95.56;97148.00;10425868;28;1848;-67
2022/02/11 20:43:11;;;;;;;;;;;;;;;0.13;96.13;97148.88;10428213;28;1807;-69
2022/02/11 20:48:15;;;;;;;;;;;;;;;0.17;97.21;97149.34;10428486;28;1911;-68
2022/02/11 20:53:18;;;;;;;;;;;;;;;0.26;95.92;97156.25;10427970;28;1836;-68
2022/02/11 20:58:21;;;;;;;;;;;;;;;0.32;95.73;97155.53;10426913;28;1794;-69
2022/02/11 21:03:24;;;;;;;;;;;;;;;0.56;92.16;97169.56;10427964;28;1754;-67
2022/02/11 21:08:28;;;;;;;;;;;;;;;0.53;92.18;97166.28;10415874;28;1977;-69
2022/02/11 21:13:31;;;;;;;;;;;;;;;0.41;93.87;97170.34;10418853;28;1925;-69
2022/02/11 21:18:35;;;;;;;;;;;;;;;0.23;94.79;97172.44;10422075;28;1910;-68
2022/02/11 21:23:39;;;;;;;;;;;;;;;0.13;95.38;97175.31;10419912;28;1800;-68
2022/02/11 21:28:44;;;;;;;;;;;;;;;-0.02;96.07;97184.97;10423953;28;1979;-69
2022/02/11 21:33:48;;;;;;;;;;;;;;;-0.03;97.15;97183.31;10421255;28;2003;-68
2022/02/11 21:38:51;;;;;;;;;;;;;;;0.01;96.49;97189.09;10418125;28;1794;-68
2022/02/11 21:43:54;;;;;;;;;;;;;;;0.17;94.35;97183.72;10437548;28;1883;-67
2022/02/11 21:48:58;;;;;;;;;;;;;;;0.22;94.41;97184.03;10412784;28;1918;-68
2022/02/11 21:54:01;;;;;;;;;;;;;;;0.10;93.22;97182.75;10416725;28;1813;-69
2022/02/11 21:59:04;;;;;;;;;;;;;;;-0.10;94.50;97183.19;10414795;28;1838;-70
2022/02/11 22:04:08;;;;;;;;;;;;;;;-0.14;94.79;97184.50;10410933;28;2835;-68
2022/02/11 22:09:11;;;;;;;;;;;;;;;-0.21;93.86;97191.47;10404541;28;1906;-67
2022/02/11 22:14:17;;;;;;;;;;;;;;;-0.28;95.07;97190.53;10420703;28;1821;-68
2022/02/11 22:19:20;;;;;;;;;;;;;;;-0.32;95.55;97191.84;10430487;28;1889;-68
2022/02/11 22:24:23;;;;;;;;;;;;;;;-0.21;95.51;97188.84;10438659;28;1825;-67
2022/02/11 22:29:27;;;;;;;;;;;;;;;-0.13;94.48;97182.69;10423405;28;1981;-67
2022/02/11 22:34:33;;;;;;;;;;;;;;;-0.07;93.94;97177.53;10416757;28;1825;-67
2022/02/11 22:39:36;;;;;;;;;;;;;;;-0.13;94.03;97188.81;10417483;28;1971;-67
2022/02/11 22:44:40;;;;;;;;;;;;;;;-0.25;93.55;97182.28;10436176;28;1987;-66
2022/02/11 22:55:04;;;;;;;;;;;;;;;-0.42;96.80;97196.53;10415878;28;1947;-69
2022/02/11 23:00:08;;;;;;;;;;;;;;;-0.52;97.22;97180.84;10418022;28;1833;-69
2022/02/11 23:10:32;;;;;;;;;;;;;;;-0.50;97.82;97173.59;10416811;28;1989;-68
2022/02/11 23:15:36;;;;;;;;;;;;;;;-0.40;96.58;97173.38;10430837;28;1949;-69
2022/02/11 23:20:40;;;;;;;;;;;;;;;-0.52;97.87;97177.38;10413737;28;1872;-67
2022/02/11 23:25:44;;;;;;;;;;;;;;;-0.35;97.39;97184.28;10417124;28;1852;-69
2022/02/11 23:30:48;;;;;;;;;;;;;;;-0.56;97.58;97180.38;10434818;28;1972;-68
2022/02/11 23:35:51;;;;;;;;;;;;;;;-0.67;98.24;97179.91;10416395;28;1892;-68
2022/02/11 23:40:55;;;;;;;;;;;;;;;-0.66;99.23;97174.44;10418009;28;1789;-67
2022/02/11 23:45:58;;;;;;;;;;;;;;;-0.78;98.84;97175.81;10410846;28;1875;-66
2022/02/11 23:51:01;;;;;;;;;;;;;;;-0.88;98.81;97172.53;10415989;28;1981;-67
2022/02/11 23:56:05;;;;;;;;;;;;;;;-0.96;99.90;97159.31;10413686;28;1845;-67
